CW4611 Weather Reports


Display with metric or nautical units.
time (UTC)temp
F
wind
direction
speed
MPH
gust
MPH
rain 1hr
in
rain 24hr
in
rain mn
in
humidity
%
barometer
mb
20180815130604 57 48 3.0 14.0 0.00 0.00 0.00 39 1025.0
20180815130104 56 39 7.0 14.0 0.00 0.00 0.00 38 1024.7
20180815125605 56 42 7.0 14.0 0.00 0.00 0.00 39 1024.7
20180815125105 56 85 9.0 14.0 0.00 0.00 0.00 39 1024.6
20180815124106 57 14 2.0 14.0 0.00 0.00 0.00 41 1024.8
20180815123606 57 91 5.0 14.0 0.00 0.00 0.00 39 1024.8
20180815123106 57 62 6.0 12.0 0.00 0.00 0.00 38 1024.8
20180815122605 57 55 6.0 12.0 0.00 0.00 0.00 39 1024.8
20180815122106 57 21 2.0 12.0 0.00 0.00 0.00 39 1024.8
20180815121606 57 66 5.0 12.0 0.00 0.00 0.00 37 1024.6
20180815121106 57 39 5.0 12.0 0.00 0.00 0.00 37 1024.6
20180815120607 57 55 5.0 16.0 0.00 0.00 0.00 37 1024.6
20180815120106 57 36 6.0 16.0 0.00 0.00 0.00 37 1024.6
20180815115606 57 43 4.0 13.0 0.00 0.00 0.00 38 1024.4
20180815115106 57 56 7.0 17.0 0.00 0.00 0.00 38 1024.4
20180815114606 57 84 10.0 17.0 0.00 0.00 0.00 38 1024.4
20180815114105 57 69 10.0 17.0 0.00 0.00 0.00 38 1024.6
20180815113605 57 67 9.0 16.0 0.00 0.00 0.00 37 1024.4
20180815113106 57 56 8.0 16.0 0.00 0.00 0.00 37 1024.4
20180815112606 57 58 5.0 12.0 0.00 0.00 0.00 38 1024.4
20180815112105 58 75 4.0 13.0 0.00 0.00 0.00 38 1024.4
20180815111606 58 74 5.0 13.0 0.00 0.00 0.00 37 1024.4
20180815111105 57 34 6.0 14.0 0.00 0.00 0.00 37 1024.4
20180815110606 57 51 7.0 14.0 0.00 0.00 0.00 37 1024.3
20180815110106 57 36 7.0 14.0 0.00 0.00 0.00 37 1024.3
20180815105606 58 55 7.0 14.0 0.00 0.00 0.00 37 1024.3
20180815105106 58 76 9.0 14.0 0.00 0.00 0.00 37 1024.3
20180815104606 57 63 9.0 18.0 0.00 0.00 0.00 37 1024.3
20180815104106 57 59 10.0 18.0 0.00 0.00 0.00 37 1024.3
20180815103605 57 66 1.0 14.0 0.00 0.00 0.00 40 1024.5
20180815103106 57 50 0.0 10.0 0.00 0.00 0.00 38 1024.4
20180815102606 57 54 3.0 12.0 0.00 0.00 0.00 38 1024.4
20180815102106 57 38 6.0 12.0 0.00 0.00 0.00 37 1024.3
20180815101606 57 31 6.0 13.0 0.00 0.00 0.00 37 1024.3
20180815101105 57 38 7.0 15.0 0.00 0.00 0.00 37 1024.3
20180815100605 57 44 9.0 15.0 0.00 0.00 0.00 37 1024.7
20180815100106 57 80 9.0 16.0 0.00 0.00 0.00 37 1024.7
20180815095605 56 54 7.0 16.0 0.00 0.00 0.00 38 1024.7
20180815095106 56 52 9.0 15.0 0.00 0.00 0.00 39 1024.7
20180815094606 56 82 5.0 12.0 0.00 0.00 0.00 38 1024.7
20180815094106 56 84 5.0 12.0 0.00 0.00 0.00 39 1024.7
20180815093605 55 65 1.0 6.0 0.00 0.00 0.00 40 1024.7
20180815093106 55 24 1.0 3.0 0.00 0.00 0.00 41 1024.7
20180815092606 56 24 0.0 6.0 0.00 0.00 0.00 40 1024.7
20180815092106 56 68 1.0 6.0 0.00 0.00 0.00 39 1024.8
20180815091606 56 349 0.0 6.0 0.00 0.00 0.00 40 1024.8
20180815091105 57 338 0.0 6.0 0.00 0.00 0.00 40 1024.7
20180815090605 57 26 2.0 6.0 0.00 0.00 0.00 38 1024.7
20180815090106 57 41 1.0 3.0 0.00 0.00 0.00 38 1024.7
20180815085606 57 12 0.0 5.0 0.00 0.00 0.00 38 1024.7
20180815085106 57 12 0.0 5.0 0.00 0.00 0.00 37 1024.4
20180815084605 57 2 2.0 6.0 0.00 0.00 0.00 37 1024.4
20180815084106 58 32 1.0 10.0 0.00 0.00 0.00 38 1024.4
20180815083606 58 33 1.0 10.0 0.00 0.00 0.00 38 1024.4
20180815083106 58 55 4.0 10.0 0.00 0.00 0.00 37 1024.4
20180815082606 57 52 5.0 10.0 0.00 0.00 0.00 37 1024.4
20180815082106 57 56 1.0 5.0 0.00 0.00 0.00 38 1024.5
20180815081606 57 5 1.0 3.0 0.00 0.00 0.00 39 1024.5
20180815081106 58 5 1.0 7.0 0.00 0.00 0.00 39 1024.5
20180815080606 57 45 4.0 10.0 0.00 0.00 0.00 38 1024.5
20180815080106 57 52 5.0 10.0 0.00 0.00 0.00 38 1024.5
20180815075606 57 67 2.0 7.0 0.00 0.00 0.00 39 1024.5
20180815075106 58 59 0.0 5.0 0.00 0.00 0.00 41 1024.5
20180815074607 59 53 0.0 0.0 0.00 0.00 0.00 38 1024.5
20180815074105 59 53 0.0 2.0 0.00 0.00 0.00 38 1024.5
20180815073606 59 53 0.0 5.0 0.00 0.00 0.00 37 1024.3
20180815073134 59 53 1.0 12.0 0.00 0.00 0.00 36 1024.3
20180815072606 60 53 4.0 12.0 0.00 0.00 0.00 36 1024.3
20180815072105 60 43 5.0 12.0 0.00 0.00 0.00 35 1024.3
20180815071606 60 89 6.0 12.0 0.00 0.00 0.00 35 1024.3
20180815071106 60 96 2.0 12.0 0.00 0.00 0.00 36 1024.3
20180815070605 60 26 3.0 13.0 0.00 0.00 0.00 36 1024.3
20180815070106 60 53 6.0 13.0 0.00 0.00 0.00 35 1024.0
20180815065605 60 78 6.0 12.0 0.00 0.00 0.00 35 1024.0
20180815065105 60 74 5.0 12.0 0.00 0.00 0.00 37 1024.0
20180815064606 60 55 3.0 7.0 0.00 0.00 0.00 35 1024.0
20180815064106 60 32 2.0 6.0 0.00 0.00 0.00 37 1024.0
20180815063605 60 27 2.0 5.0 0.00 0.00 0.00 37 1023.8
20180815063106 60 53 1.0 3.0 0.00 0.00 0.00 38 1023.8
20180815062605 60 53 1.0 10.0 0.00 0.00 0.00 37 1023.8
20180815062105 60 67 0.0 10.0 0.00 0.00 0.00 37 1023.7
20180815061605 61 70 5.0 10.0 0.00 0.00 0.00 36 1023.7
20180815061107 60 55 6.0 10.0 0.00 0.00 0.00 35 1023.7
20180815060605 60 41 5.0 12.0 0.00 0.00 0.00 35 1023.7
20180815060106 60 32 4.0 13.0 0.00 0.00 0.00 34 1023.7
20180815055606 60 66 5.0 13.0 0.00 0.00 0.00 35 1023.7
20180815055106 60 47 6.0 13.0 0.00 0.00 0.00 35 1023.7
20180815054605 60 60 6.0 12.0 0.00 0.00 0.00 35 1023.7
20180815054106 60 38 5.0 10.0 0.00 0.00 0.00 35 1023.9
20180815053605 60 42 6.0 10.0 0.00 0.00 0.00 35 1023.9
20180815053106 60 88 5.0 9.0 0.00 0.00 0.00 36 1023.9
20180815052606 60 13 0.0 2.0 0.00 0.00 0.00 37 1023.9
20180815052106 60 13 0.0 3.0 0.00 0.00 0.00 37 1023.7
20180815051606 60 13 1.0 3.0 0.00 0.00 0.00 37 1023.7
20180815051105 60 13 1.0 3.0 0.00 0.00 0.00 36 1023.7
20180815050606 60 14 1.0 3.0 0.00 0.00 0.00 36 1023.7
20180815050105 61 15 0.0 3.0 0.00 0.00 0.00 36 1023.7
20180815045605 61 15 0.0 3.0 0.00 0.00 0.00 35 1023.4
20180815045105 61 15 1.0 3.0 0.00 0.00 0.00 35 1023.4
20180815044605 61 15 1.0 3.0 0.00 0.00 0.00 34 1023.4
20180815044106 61 24 0.0 5.0 0.00 0.00 0.00 34 1023.4
20180815043606 61 23 2.0 5.0 0.00 0.00 0.00 34 1023.4
20180815043105 62 33 2.0 3.0 0.00 0.00 0.00 33 1023.4
20180815042606 62 38 0.0 3.0 0.00 0.00 0.00 34 1023.4
20180815042106 62 38 0.0 3.0 0.00 0.00 0.00 33 1023.4
20180815041606 62 37 1.0 3.0 0.00 0.00 0.00 32 1023.4
20180815041106 63 41 1.0 2.0 0.00 0.00 0.00 33 1023.4
20180815040606 63 41 0.0 2.0 0.00 0.00 0.00 33 1023.0
20180815040106 63 41 0.0 3.0 0.00 0.00 0.00 32 1023.0
20180815035606 64 52 0.0 6.0 0.00 0.00 0.00 32 1023.0
20180815035106 64 52 1.0 6.0 0.00 0.00 0.00 32 1023.0
20180815034606 64 329 0.0 3.0 0.00 0.00 0.00 31 1023.0
20180815034106 65 328 1.0 3.0 0.00 0.00 0.00 31 1023.0
20180815033606 65 327 0.0 2.0 0.00 0.00 0.00 31 1023.0
20180815033106 66 327 0.0 2.0 0.00 0.00 0.00 30 1023.0
20180815032606 66 327 0.0 1.0 0.00 0.00 0.00 30 1023.0
20180815032105 66 327 0.0 3.0 0.00 0.00 0.00 30 1022.9
20180815031605 66 327 0.0 3.0 0.00 0.00 0.00 30 1022.8
20180815031105 67 327 0.0 3.0 0.00 0.00 0.00 30 1022.6
20180815030605 67 327 0.0 1.0 0.00 0.00 0.00 30 1022.6
20180815030106 68 327 0.0 0.0 0.00 0.00 0.00 29 1021.9
20180815025605 68 327 0.0 2.0 0.00 0.00 0.00 29 1021.9
20180815025105 68 327 0.0 3.0 0.00 0.00 0.00 31 1021.9
20180815024606 69 327 0.0 3.0 0.00 0.00 0.00 29 1021.9
20180815024105 69 327 1.0 3.0 0.00 0.00 0.00 28 1021.9
20180815023605 69 328 0.0 3.0 0.00 0.00 0.00 28 1021.9
20180815023105 69 328 1.0 3.0 0.00 0.00 0.00 28 1021.9
20180815022606 69 306 1.0 3.0 0.00 0.00 0.00 28 1021.9
20180815022105 70 306 1.0 3.0 0.00 0.00 0.00 28 1021.9
20180815021605 70 282 0.0 1.0 0.00 0.00 0.00 29 1022.3
20180815021106 70 279 0.0 2.0 0.00 0.00 0.00 31 1022.3
20180815020606 71 279 0.0 2.0 0.00 0.00 0.00 30 1022.3
20180815020105 71 279 0.0 2.0 0.00 0.00 0.00 29 1022.3
20180815015605 72 279 0.0 2.0 0.00 0.00 0.00 29 1022.3
20180815015105 72 279 0.0 2.0 0.00 0.00 0.00 30 1022.3
20180815014606 73 279 0.0 3.0 0.00 0.00 0.00 27 1022.3
20180815014105 74 279 0.0 3.0 0.00 0.00 0.00 26 1022.3
20180815013605 74 279 1.0 3.0 0.00 0.00 0.00 26 1022.3
20180815013105 74 256 0.0 3.0 0.00 0.00 0.00 26 1022.3
20180815012605 75 256 0.0 3.0 0.00 0.00 0.00 26 1022.2
20180815012105 75 336 0.0 5.0 0.00 0.00 0.00 26 1022.2
20180815011605 75 264 1.0 5.0 0.00 0.00 0.00 25 1022.2
20180815011105 76 259 1.0 3.0 0.00 0.00 0.00 25 1022.1
20180815010605 76 313 1.0 8.0 0.00 0.00 0.00 25 1022.1
20180815010105 76 276 1.0 8.0 0.00 0.00 0.00 25 1022.1
20180815005605 76 292 0.0 6.0 0.00 0.00 0.00 25 1022.0
20180815005106 77 238 2.0 6.0 0.00 0.00 0.00 24 1022.0
20180815004605 77 286 0.0 7.0 0.00 0.00 0.00 24 1022.0
20180815004105 77 282 1.0 10.0 0.00 0.00 0.00 23 1022.0
20180815003605 77 266 3.0 10.0 0.00 0.00 0.00 23 1022.0
20180815003105 78 274 1.0 10.0 0.00 0.00 0.00 23 1022.0
20180815002605 78 293 3.0 12.0 0.00 0.00 0.00 23 1022.0
20180815002105 78 314 3.0 12.0 0.00 0.00 0.00 23 1021.8
20180815001605 79 325 2.0 12.0 0.00 0.00 0.00 23 1021.8
20180815001105 79 324 3.0 12.0 0.00 0.00 0.00 23 1021.8
20180815000605 79 195 2.0 6.0 0.00 0.00 0.00 23 1021.8
20180815000105 80 318 1.0 12.0 0.00 0.00 0.00 23 1021.8
20180814235605 80 280 3.0 12.0 0.00 0.00 0.00 22 1021.8
20180814235105 80 213 1.0 10.0 0.00 0.00 0.00 22 1021.8
20180814234605 81 257 1.0 10.0 0.00 0.00 0.00 22 1021.7
20180814234105 81 275 2.0 10.0 0.00 0.00 0.00 22 1021.7
20180814233605 81 178 1.0 9.0 0.00 0.00 0.00 23 1021.7
20180814233105 81 8 2.0 15.0 0.00 0.00 0.00 21 1021.6
20180814232605 82 1 3.0 15.0 0.00 0.00 0.00 21 1021.7
20180814232105 82 255 3.0 15.0 0.00 0.00 0.00 22 1021.8
20180814231605 82 99 2.0 10.0 0.00 0.00 0.00 22 1021.8
20180814231105 82 227 4.0 9.0 0.00 0.00 0.00 23 1022.0
20180814230604 82 284 3.0 9.0 0.00 0.00 0.00 24 1022.0
20180814230105 82 168 1.0 7.0 0.00 0.00 0.00 23 1022.0
20180814225605 82 205 3.0 12.0 0.00 0.00 0.00 22 1022.0
20180814225105 82 246 3.0 12.0 0.00 0.00 0.00 22 1022.0
20180814224605 83 267 1.0 12.0 0.00 0.00 0.00 22 1022.0
20180814224105 83 253 2.0 12.0 0.00 0.00 0.00 23 1022.0
20180814223605 83 292 1.0 12.0 0.00 0.00 0.00 23 1022.0
20180814223105 83 300 3.0 10.0 0.00 0.00 0.00 22 1022.0
20180814222605 84 19 1.0 13.0 0.00 0.00 0.00 22 1022.0
20180814222105 84 74 1.0 13.0 0.00 0.00 0.00 22 1022.0
20180814221605 84 180 5.0 13.0 0.00 0.00 0.00 22 1022.3
20180814221104 84 231 2.0 12.0 0.00 0.00 0.00 22 1022.3
20180814220605 84 296 2.0 12.0 0.00 0.00 0.00 22 1022.3
20180814220105 84 169 1.0 10.0 0.00 0.00 0.00 22 1022.3
20180814215605 84 144 3.0 10.0 0.00 0.00 0.00 24 1022.3
20180814215104 84 252 3.0 10.0 0.00 0.00 0.00 23 1022.3
20180814214605 83 251 3.0 12.0 0.00 0.00 0.00 25 1022.3
20180814214105 83 175 4.0 12.0 0.00 0.00 0.00 25 1022.2
20180814213605 82 147 5.0 9.0 0.00 0.00 0.00 24 1022.2
20180814213105 82 145 1.0 5.0 0.00 0.00 0.00 27 1022.3
20180814212604 81 206 2.0 7.0 0.00 0.00 0.00 28 1022.7
20180814212105 80 257 3.0 10.0 0.00 0.00 0.00 27 1022.7
20180814211605 80 123 1.0 10.0 0.00 0.00 0.00 27 1022.7
20180814211105 80 220 3.0 10.0 0.00 0.00 0.00 26 1022.7
20180814210604 79 175 3.0 10.0 0.00 0.00 0.00 27 1022.7
20180814210106 79 195 1.0 9.0 0.00 0.00 0.00 25 1022.7
20180814205605 79 226 3.0 10.0 0.00 0.00 0.00 26 1022.7
20180814205105 79 277 1.0 10.0 0.00 0.00 0.00 27 1022.7
20180814204604 79 192 1.0 9.0 0.00 0.00 0.00 26 1022.9
20180814204105 79 207 2.0 9.0 0.00 0.00 0.00 29 1022.9
20180814203604 78 162 0.0 6.0 0.00 0.00 0.00 28 1022.9
20180814203105 78 80 1.0 6.0 0.00 0.00 0.00 27 1022.9
20180814202605 78 204 1.0 6.0 0.00 0.00 0.00 28 1023.2
20180814202104 77 267 1.0 7.0 0.00 0.00 0.00 29 1023.2
20180814201605 77 209 0.0 10.0 0.00 0.00 0.00 28 1023.2
20180814201105 77 194 1.0 12.0 0.00 0.00 0.00 28 1023.2
20180814200605 77 224 1.0 12.0 0.00 0.00 0.00 29 1023.2
20180814200105 76 27 5.0 12.0 0.00 0.00 0.00 28 1023.3
20180814195605 76 353 3.0 13.0 0.00 0.00 0.00 29 1023.3
20180814195105 76 346 3.0 13.0 0.00 0.00 0.00 29 1023.5
20180814194605 77 309 5.0 13.0 0.00 0.00 0.00 28 1023.5
20180814194104 77 286 2.0 7.0 0.00 0.00 0.00 29 1023.3
20180814193605 77 329 0.0 7.0 0.00 0.00 0.00 29 1023.2
20180814193105 78 260 0.0 3.0 0.00 0.00 0.00 30 1023.1
20180814192604 78 268 0.0 3.0 0.00 0.00 0.00 27 1023.1
20180814192104 78 256 0.0 3.0 0.00 0.00 0.00 28 1023.1
20180814191605 78 253 0.0 6.0 0.00 0.00 0.00 28 1023.1
20180814191105 78 252 2.0 6.0 0.00 0.00 0.00 28 1023.1
20180814190604 78 294 1.0 7.0 0.00 0.00 0.00 28 1023.1
20180814190105 79 292 2.0 7.0 0.00 0.00 0.00 28 1023.1
20180814185605 79 9 1.0 6.0 0.00 0.00 0.00 26 1010.5
20180814185106 79 353 0.0 6.0 0.00 0.00 0.00 26 1023.2
20180814184605 80 353 1.0 3.0 0.00 0.00 0.00 26 1023.4
20180814184106 81 190 1.0 9.0 0.00 0.00 0.00 27 1023.4
20180814183606 81 166 3.0 9.0 0.00 0.00 0.00 26 1023.4
20180814183106 81 284 0.0 3.0 0.00 0.00 0.00 25 1023.4
20180814182606 81 284 1.0 5.0 0.00 0.00 0.00 26 1023.4
20180814182107 81 288 1.0 12.0 0.00 0.00 0.00 23 1023.4
20180814181606 82 301 7.0 12.0 0.00 0.00 0.00 23 1023.4
20180814181106 82 231 2.0 10.0 0.00 0.00 0.00 26 1023.6
20180814180606 83 197 1.0 6.0 0.00 0.00 0.00 26 1023.6
20180814180108 83 215 2.0 9.0 0.00 0.00 0.00 25 1023.6
20180814175606 83 134 2.0 9.0 0.00 0.00 0.00 26 1023.6
20180814175106 83 172 3.0 9.0 0.00 0.00 0.00 25 1023.5
20180814174605 83 183 2.0 7.0 0.00 0.00 0.00 26 1023.5
20180814174111 82 169 2.0 7.0 0.00 0.00 0.00 28 1023.6
20180814173606 82 146 2.0 8.0 0.00 0.00 0.00 28 1023.6
20180814173106 82 184 3.0 9.0 0.00 0.00 0.00 28 1023.6
20180814172606 82 158 2.0 10.0 0.00 0.00 0.00 28 1023.6
20180814172106 81 173 2.0 10.0 0.00 0.00 0.00 29 1023.7
20180814171606 81 140 3.0 10.0 0.00 0.00 0.00 29 1023.7
20180814171106 81 219 3.0 8.0 0.00 0.00 0.00 28 1023.7
20180814170606 80 259 2.0 7.0 0.00 0.00 0.00 30 1023.7
20180814170107 80 177 1.0 7.0 0.00 0.00 0.00 30 1023.7
20180814165606 80 174 1.0 5.0 0.00 0.00 0.00 31 1023.8
20180814165106 79 145 0.0 3.0 0.00 0.00 0.00 31 1023.9
20180814164606 79 219 1.0 5.0 0.00 0.00 0.00 31 1023.9
20180814164106 78 200 1.0 6.0 0.00 0.00 0.00 30 1024.2
20180814163606 78 162 2.0 6.0 0.00 0.00 0.00 33 1024.2
20180814163105 78 198 3.0 6.0 0.00 0.00 0.00 31 1024.2
20180814162606 78 172 3.0 6.0 0.00 0.00 0.00 32 1024.2
20180814162105 77 174 2.0 5.0 0.00 0.00 0.00 33 1024.2
20180814161607 77 185 1.0 3.0 0.00 0.00 0.00 33 1024.2
20180814161106 76 159 1.0 3.0 0.00 0.00 0.00 35 1024.2
20180814160606 75 144 1.0 3.0 0.00 0.00 0.00 34 1024.3
20180814160107 74 139 0.0 5.0 0.00 0.00 0.00 35 1024.3
20180814155606 74 139 0.0 5.0 0.00 0.00 0.00 36 1023.8
20180814155106 73 97 0.0 3.0 0.00 0.00 0.00 38 1023.8
20180814154606 72 97 0.0 3.0 0.00 0.00 0.00 38 1023.8
20180814154106 71 113 1.0 3.0 0.00 0.00 0.00 40 1023.9
20180814153605 71 113 1.0 3.0 0.00 0.00 0.00 41 1024.0
20180814153106 70 113 0.0 3.0 0.00 0.00 0.00 42 1024.0
20180814152606 69 113 0.0 3.0 0.00 0.00 0.00 44 1024.0
20180814152106 69 109 1.0 3.0 0.00 0.00 0.00 45 1024.0
20180814151606 68 75 0.0 5.0 0.00 0.00 0.00 45 1024.0
20180814151106 67 75 1.0 6.0 0.00 0.00 0.00 45 1024.0
20180814150605 67 47 2.0 7.0 0.00 0.00 0.00 47 1024.0
20180814150107 66 68 1.0 7.0 0.00 0.00 0.00 48 1024.0
20180814145606 66 62 3.0 6.0 0.00 0.00 0.00 48 1024.0
20180814145106 65 81 2.0 9.0 0.00 0.00 0.00 47 1024.0
20180814144606 65 56 3.0 9.0 0.00 0.00 0.00 47 1024.0
20180814144106 64 72 3.0 7.0 0.00 0.00 0.00 48 1023.9
20180814143606 64 51 2.0 10.0 0.00 0.00 0.00 48 1023.8
20180814143106 63 64 4.0 10.0 0.00 0.00 0.00 47 1024.1
20180814142606 63 62 6.0 10.0 0.00 0.00 0.00 48 1024.1
20180814142105 62 30 3.0 10.0 0.00 0.00 0.00 48 1024.1
20180814141606 62 48 2.0 5.0 0.00 0.00 0.00 50 1024.1
20180814141106 62 71 2.0 6.0 0.00 0.00 0.00 50 1024.1
20180814140606 62 71 3.0 7.0 0.00 0.00 0.00 47 1024.5
20180814140107 62 54 5.0 7.0 0.00 0.00 0.00 47 1024.5
20180814135605 62 33 2.0 7.0 0.00 0.00 0.00 48 1024.0
20180814135114 62 36 2.0 7.0 0.00 0.00 0.00 47 1024.0
20180814134606 62 65 4.0 8.0 0.00 0.00 0.00 46 1024.0
20180814134106 62 26 3.0 8.0 0.00 0.00 0.00 46 1024.0
20180814133606 61 48 3.0 8.0 0.00 0.00 0.00 45 1023.7
20180814133106 61 29 3.0 9.0 0.00 0.00 0.00 47 1023.7
20180814132606 61 47 4.0 12.0 0.00 0.00 0.00 45 1023.7
20180814132106 61 0 4.0 12.0 0.00 0.00 0.00 46 1023.7
20180814131606 61 41 4.0 12.0 0.00 0.00 0.00 45 1023.7
20180814131106 60 38 3.0 9.0 0.00 0.00 0.00 45 1023.7